sensor_id;sensor_type;location;lat;lon;timestamp;pressure;altitude;pressure_sealevel;temperature;humidity
73918;BME280;63639;52.280;5.162;2022-10-16T00:01:32;100984.52;;;18.82;57.32
73918;BME280;63639;52.280;5.162;2022-10-16T00:04:00;100984.97;;;18.82;57.27
73918;BME280;63639;52.280;5.162;2022-10-16T00:06:28;100988.45;;;18.81;57.25
73918;BME280;63639;52.280;5.162;2022-10-16T00:08:56;100984.63;;;18.81;57.32
73918;BME280;63639;52.280;5.162;2022-10-16T00:11:25;100987.72;;;18.81;57.30
73918;BME280;63639;52.280;5.162;2022-10-16T00:13:56;100985.45;;;18.79;57.26
73918;BME280;63639;52.280;5.162;2022-10-16T00:16:24;100982.00;;;18.80;57.28
73918;BME280;63639;52.280;5.162;2022-10-16T00:18:50;100981.49;;;18.79;57.10
73918;BME280;63639;52.280;5.162;2022-10-16T00:21:19;100976.30;;;18.79;57.24
73918;BME280;63639;52.280;5.162;2022-10-16T00:23:49;100976.93;;;18.79;57.19
73918;BME280;63639;52.280;5.162;2022-10-16T00:26:17;100976.89;;;18.78;57.17
73918;BME280;63639;52.280;5.162;2022-10-16T00:28:45;100970.11;;;18.77;57.17
73918;BME280;63639;52.280;5.162;2022-10-16T00:31:13;100975.80;;;18.77;57.14
73918;BME280;63639;52.280;5.162;2022-10-16T00:33:40;100966.05;;;18.77;57.04
73918;BME280;63639;52.280;5.162;2022-10-16T00:36:10;100966.56;;;18.77;57.12
73918;BME280;63639;52.280;5.162;2022-10-16T00:38:37;100980.92;;;18.77;57.15
73918;BME280;63639;52.280;5.162;2022-10-16T00:41:05;100977.41;;;18.77;57.09
73918;BME280;63639;52.280;5.162;2022-10-16T00:43:36;100970.78;;;18.76;57.05
73918;BME280;63639;52.280;5.162;2022-10-16T00:46:07;100968.45;;;18.75;57.07
73918;BME280;63639;52.280;5.162;2022-10-16T00:48:37;100964.03;;;18.75;57.07
73918;BME280;63639;52.280;5.162;2022-10-16T00:51:04;100978.67;;;18.75;57.05
73918;BME280;63639;52.280;5.162;2022-10-16T00:53:33;100979.45;;;18.74;57.12
73918;BME280;63639;52.280;5.162;2022-10-16T00:56:00;100976.47;;;18.74;57.07
73918;BME280;63639;52.280;5.162;2022-10-16T00:58:27;100981.27;;;18.75;57.11
73918;BME280;63639;52.280;5.162;2022-10-16T01:02:35;100985.98;;;18.74;57.09
73918;BME280;63639;52.280;5.162;2022-10-16T01:05:02;100978.71;;;18.74;57.10
73918;BME280;63639;52.280;5.162;2022-10-16T01:07:36;100983.92;;;18.74;57.09
73918;BME280;63639;52.280;5.162;2022-10-16T01:10:14;100973.06;;;18.73;57.11
73918;BME280;63639;52.280;5.162;2022-10-16T01:12:47;100969.16;;;18.74;57.04
73918;BME280;63639;52.280;5.162;2022-10-16T01:15:21;100963.90;;;18.74;57.02
73918;BME280;63639;52.280;5.162;2022-10-16T01:17:55;100960.29;;;18.74;57.00
73918;BME280;63639;52.280;5.162;2022-10-16T01:20:27;100962.41;;;18.74;57.03
73918;BME280;63639;52.280;5.162;2022-10-16T01:23:05;100962.63;;;18.74;56.97
73918;BME280;63639;52.280;5.162;2022-10-16T01:25:51;100961.59;;;18.74;57.01
73918;BME280;63639;52.280;5.162;2022-10-16T01:28:24;100961.33;;;18.73;57.03
73918;BME280;63639;52.280;5.162;2022-10-16T01:30:56;100957.27;;;18.73;57.01
73918;BME280;63639;52.280;5.162;2022-10-16T01:33:27;100962.69;;;18.73;57.00
73918;BME280;63639;52.280;5.162;2022-10-16T01:35:59;100966.33;;;18.72;57.02
73918;BME280;63639;52.280;5.162;2022-10-16T01:38:34;100975.45;;;18.73;57.09
73918;BME280;63639;52.280;5.162;2022-10-16T01:41:08;100981.30;;;18.73;57.09
73918;BME280;63639;52.280;5.162;2022-10-16T01:43:40;100978.26;;;18.73;57.10
73918;BME280;63639;52.280;5.162;2022-10-16T01:46:09;100969.45;;;18.73;57.09
73918;BME280;63639;52.280;5.162;2022-10-16T01:48:38;100967.76;;;18.73;57.10
73918;BME280;63639;52.280;5.162;2022-10-16T01:51:10;100967.52;;;18.73;57.06
73918;BME280;63639;52.280;5.162;2022-10-16T01:53:39;100970.23;;;18.72;57.11
73918;BME280;63639;52.280;5.162;2022-10-16T01:56:09;100970.73;;;18.72;57.16
73918;BME280;63639;52.280;5.162;2022-10-16T01:58:41;100980.16;;;18.72;57.13
73918;BME280;63639;52.280;5.162;2022-10-16T02:01:13;100978.40;;;18.72;57.19
73918;BME280;63639;52.280;5.162;2022-10-16T02:03:43;100977.73;;;18.72;57.31
73918;BME280;63639;52.280;5.162;2022-10-16T02:06:11;100979.06;;;18.72;57.20
73918;BME280;63639;52.280;5.162;2022-10-16T02:08:39;100981.15;;;18.72;57.24
73918;BME280;63639;52.280;5.162;2022-10-16T02:11:07;100980.91;;;18.71;57.24
73918;BME280;63639;52.280;5.162;2022-10-16T02:13:57;100984.14;;;18.71;57.23
73918;BME280;63639;52.280;5.162;2022-10-16T02:16:33;100986.78;;;18.71;57.26
73918;BME280;63639;52.280;5.162;2022-10-16T02:19:00;100991.14;;;18.71;57.29
73918;BME280;63639;52.280;5.162;2022-10-16T02:21:37;100996.54;;;18.71;57.30
73918;BME280;63639;52.280;5.162;2022-10-16T02:24:11;101000.98;;;18.71;57.28
73918;BME280;63639;52.280;5.162;2022-10-16T02:26:43;101005.17;;;18.70;57.32
73918;BME280;63639;52.280;5.162;2022-10-16T02:29:16;101001.97;;;18.70;57.32
73918;BME280;63639;52.280;5.162;2022-10-16T02:31:47;101003.39;;;18.70;57.32
73918;BME280;63639;52.280;5.162;2022-10-16T02:34:18;101006.98;;;18.69;57.32
73918;BME280;63639;52.280;5.162;2022-10-16T02:36:49;101009.90;;;18.69;57.35
73918;BME280;63639;52.280;5.162;2022-10-16T02:39:18;101013.65;;;18.69;57.35
73918;BME280;63639;52.280;5.162;2022-10-16T02:41:45;101016.13;;;18.68;57.34
73918;BME280;63639;52.280;5.162;2022-10-16T02:44:12;101017.15;;;18.68;57.35
73918;BME280;63639;52.280;5.162;2022-10-16T02:46:44;101015.62;;;18.68;57.38
73918;BME280;63639;52.280;5.162;2022-10-16T02:49:12;101012.86;;;18.67;57.36
73918;BME280;63639;52.280;5.162;2022-10-16T02:51:39;101018.21;;;18.67;57.38
73918;BME280;63639;52.280;5.162;2022-10-16T02:54:06;101017.93;;;18.67;57.36
73918;BME280;63639;52.280;5.162;2022-10-16T02:56:33;101019.34;;;18.67;57.35
73918;BME280;63639;52.280;5.162;2022-10-16T02:59:05;101019.11;;;18.67;57.36
73918;BME280;63639;52.280;5.162;2022-10-16T03:01:33;101018.37;;;18.66;57.41
73918;BME280;63639;52.280;5.162;2022-10-16T03:04:00;101020.88;;;18.66;57.29
73918;BME280;63639;52.280;5.162;2022-10-16T03:06:28;101016.40;;;18.66;57.34
73918;BME280;63639;52.280;5.162;2022-10-16T03:08:56;101019.57;;;18.65;57.38
73918;BME280;63639;52.280;5.162;2022-10-16T03:11:23;101016.07;;;18.66;57.36
73918;BME280;63639;52.280;5.162;2022-10-16T03:13:50;101020.31;;;18.64;57.38
73918;BME280;63639;52.280;5.162;2022-10-16T03:16:18;101007.00;;;18.64;57.37
73918;BME280;63639;52.280;5.162;2022-10-16T03:18:47;101008.42;;;18.63;57.42
73918;BME280;63639;52.280;5.162;2022-10-16T03:21:15;101006.99;;;18.64;57.43
73918;BME280;63639;52.280;5.162;2022-10-16T03:23:42;101009.70;;;18.63;57.37
73918;BME280;63639;52.280;5.162;2022-10-16T03:26:10;101007.05;;;18.63;57.43
73918;BME280;63639;52.280;5.162;2022-10-16T03:28:38;101019.49;;;18.63;57.46
73918;BME280;63639;52.280;5.162;2022-10-16T03:31:05;101026.14;;;18.62;57.44
73918;BME280;63639;52.280;5.162;2022-10-16T03:33:33;101026.07;;;18.61;57.44
73918;BME280;63639;52.280;5.162;2022-10-16T03:36:00;101026.15;;;18.61;57.41
73918;BME280;63639;52.280;5.162;2022-10-16T03:38:27;101029.17;;;18.60;57.39
73918;BME280;63639;52.280;5.162;2022-10-16T03:40:55;101025.96;;;18.59;57.46
73918;BME280;63639;52.280;5.162;2022-10-16T03:43:21;101035.44;;;18.59;57.45
73918;BME280;63639;52.280;5.162;2022-10-16T03:45:50;101035.48;;;18.59;57.46
73918;BME280;63639;52.280;5.162;2022-10-16T03:48:17;101031.49;;;18.58;57.49
73918;BME280;63639;52.280;5.162;2022-10-16T03:50:45;101034.72;;;18.59;57.45
73918;BME280;63639;52.280;5.162;2022-10-16T03:53:12;101031.70;;;18.57;57.48
73918;BME280;63639;52.280;5.162;2022-10-16T03:55:44;101035.58;;;18.57;57.50
73918;BME280;63639;52.280;5.162;2022-10-16T03:58:11;101034.12;;;18.57;57.53
73918;BME280;63639;52.280;5.162;2022-10-16T04:00:40;101038.00;;;18.57;57.55
73918;BME280;63639;52.280;5.162;2022-10-16T04:03:07;101037.07;;;18.56;57.51
73918;BME280;63639;52.280;5.162;2022-10-16T04:05:34;101042.35;;;18.57;57.51
73918;BME280;63639;52.280;5.162;2022-10-16T04:08:02;101044.06;;;18.56;57.51
73918;BME280;63639;52.280;5.162;2022-10-16T04:10:29;101045.80;;;18.56;57.55
73918;BME280;63639;52.280;5.162;2022-10-16T04:13:00;101045.21;;;18.55;57.57
73918;BME280;63639;52.280;5.162;2022-10-16T04:15:28;101051.89;;;18.54;57.52
73918;BME280;63639;52.280;5.162;2022-10-16T04:17:55;101061.87;;;18.54;57.55
73918;BME280;63639;52.280;5.162;2022-10-16T04:20:23;101061.43;;;18.53;57.62
73918;BME280;63639;52.280;5.162;2022-10-16T04:22:50;101069.63;;;18.52;57.63
73918;BME280;63639;52.280;5.162;2022-10-16T04:25:18;101078.39;;;18.52;57.65
73918;BME280;63639;52.280;5.162;2022-10-16T04:27:46;101076.08;;;18.52;57.65
73918;BME280;63639;52.280;5.162;2022-10-16T04:30:18;101079.47;;;18.53;57.69
73918;BME280;63639;52.280;5.162;2022-10-16T04:32:48;101083.35;;;18.53;57.70
73918;BME280;63639;52.280;5.162;2022-10-16T04:35:16;101084.05;;;18.52;57.70
73918;BME280;63639;52.280;5.162;2022-10-16T04:37:43;101089.02;;;18.52;57.64
73918;BME280;63639;52.280;5.162;2022-10-16T04:40:11;101096.44;;;18.51;57.65
73918;BME280;63639;52.280;5.162;2022-10-16T04:42:38;101099.29;;;18.51;57.63
73918;BME280;63639;52.280;5.162;2022-10-16T04:45:11;101097.33;;;18.50;57.66
73918;BME280;63639;52.280;5.162;2022-10-16T04:47:38;101098.76;;;18.50;57.69
73918;BME280;63639;52.280;5.162;2022-10-16T04:50:06;101101.33;;;18.49;57.74
73918;BME280;63639;52.280;5.162;2022-10-16T04:52:34;101103.11;;;18.49;57.74
73918;BME280;63639;52.280;5.162;2022-10-16T04:55:01;101106.85;;;18.49;57.70
73918;BME280;63639;52.280;5.162;2022-10-16T04:57:32;101107.69;;;18.48;57.83
73918;BME280;63639;52.280;5.162;2022-10-16T05:00:00;101114.21;;;18.48;57.76
73918;BME280;63639;52.280;5.162;2022-10-16T05:02:32;101123.51;;;18.48;57.86
73918;BME280;63639;52.280;5.162;2022-10-16T05:04:59;101131.24;;;18.47;57.84
73918;BME280;63639;52.280;5.162;2022-10-16T05:07:26;101136.44;;;18.46;57.85
73918;BME280;63639;52.280;5.162;2022-10-16T05:09:58;101136.49;;;18.46;57.98
73918;BME280;63639;52.280;5.162;2022-10-16T05:12:30;101145.93;;;18.46;57.84
73918;BME280;63639;52.280;5.162;2022-10-16T05:14:57;101150.57;;;18.46;57.84
73918;BME280;63639;52.280;5.162;2022-10-16T05:17:25;101148.46;;;18.46;57.89
73918;BME280;63639;52.280;5.162;2022-10-16T05:19:53;101155.76;;;18.46;57.95
73918;BME280;63639;52.280;5.162;2022-10-16T05:22:25;101156.91;;;18.46;57.84
73918;BME280;63639;52.280;5.162;2022-10-16T05:24:53;101163.41;;;18.46;57.87
73918;BME280;63639;52.280;5.162;2022-10-16T05:27:20;101172.05;;;18.46;57.91
73918;BME280;63639;52.280;5.162;2022-10-16T05:29:48;101169.53;;;18.46;57.87
73918;BME280;63639;52.280;5.162;2022-10-16T05:32:20;101166.31;;;18.46;57.91
73918;BME280;63639;52.280;5.162;2022-10-16T05:34:50;101171.93;;;18.46;57.87
73918;BME280;63639;52.280;5.162;2022-10-16T05:37:17;101177.50;;;18.46;57.83
73918;BME280;63639;52.280;5.162;2022-10-16T05:39:43;101181.87;;;18.45;58.00
73918;BME280;63639;52.280;5.162;2022-10-16T05:42:11;101182.14;;;18.45;57.97
73918;BME280;63639;52.280;5.162;2022-10-16T05:44:37;101180.60;;;18.44;57.99
73918;BME280;63639;52.280;5.162;2022-10-16T05:47:04;101171.91;;;18.44;57.97
73918;BME280;63639;52.280;5.162;2022-10-16T05:49:31;101184.04;;;18.44;57.98
73918;BME280;63639;52.280;5.162;2022-10-16T05:52:05;101188.81;;;18.44;58.04
73918;BME280;63639;52.280;5.162;2022-10-16T05:54:33;101194.09;;;18.44;58.09
73918;BME280;63639;52.280;5.162;2022-10-16T05:57:00;101185.41;;;18.45;58.12
73918;BME280;63639;52.280;5.162;2022-10-16T05:59:44;101207.60;;;18.45;58.19
73918;BME280;63639;52.280;5.162;2022-10-16T06:02:15;101209.95;;;18.45;58.29
73918;BME280;63639;52.280;5.162;2022-10-16T06:04:42;101211.87;;;18.45;58.19
73918;BME280;63639;52.280;5.162;2022-10-16T06:07:10;101224.29;;;18.46;58.22
73918;BME280;63639;52.280;5.162;2022-10-16T06:09:36;101235.60;;;18.45;58.27
73918;BME280;63639;52.280;5.162;2022-10-16T06:12:04;101235.48;;;18.45;58.19
73918;BME280;63639;52.280;5.162;2022-10-16T06:14:31;101236.13;;;18.44;58.78
73918;BME280;63639;52.280;5.162;2022-10-16T06:16:57;101232.43;;;18.43;58.75
73918;BME280;63639;52.280;5.162;2022-10-16T06:19:25;101225.91;;;18.43;58.68
73918;BME280;63639;52.280;5.162;2022-10-16T06:21:52;101221.57;;;18.43;58.61
73918;BME280;63639;52.280;5.162;2022-10-16T06:24:19;101215.52;;;18.44;58.55
73918;BME280;63639;52.280;5.162;2022-10-16T06:26:46;101207.86;;;18.44;58.65
73918;BME280;63639;52.280;5.162;2022-10-16T06:29:13;101205.15;;;18.44;58.52
73918;BME280;63639;52.280;5.162;2022-10-16T06:31:40;101226.22;;;18.44;58.60
73918;BME280;63639;52.280;5.162;2022-10-16T06:34:09;101229.76;;;18.44;58.70
73918;BME280;63639;52.280;5.162;2022-10-16T06:36:37;101227.38;;;18.44;58.60
73918;BME280;63639;52.280;5.162;2022-10-16T06:39:04;101229.71;;;18.44;58.53
73918;BME280;63639;52.280;5.162;2022-10-16T06:41:32;101217.16;;;18.44;58.51
73918;BME280;63639;52.280;5.162;2022-10-16T06:43:59;101228.52;;;18.45;58.50
73918;BME280;63639;52.280;5.162;2022-10-16T06:46:27;101239.40;;;18.44;58.49
73918;BME280;63639;52.280;5.162;2022-10-16T06:48:54;101242.49;;;18.44;58.53
73918;BME280;63639;52.280;5.162;2022-10-16T06:51:24;101245.25;;;18.44;58.52
73918;BME280;63639;52.280;5.162;2022-10-16T06:53:54;101244.98;;;18.45;58.44
73918;BME280;63639;52.280;5.162;2022-10-16T06:56:23;101249.68;;;18.45;58.61
73918;BME280;63639;52.280;5.162;2022-10-16T06:58:52;101253.85;;;18.44;58.48
73918;BME280;63639;52.280;5.162;2022-10-16T07:01:21;101255.40;;;18.44;58.44
73918;BME280;63639;52.280;5.162;2022-10-16T07:03:48;101265.77;;;18.44;58.45
73918;BME280;63639;52.280;5.162;2022-10-16T07:06:17;101265.61;;;18.44;58.46
73918;BME280;63639;52.280;5.162;2022-10-16T07:08:46;101275.88;;;18.44;58.40
73918;BME280;63639;52.280;5.162;2022-10-16T07:11:20;101275.16;;;18.44;58.40
73918;BME280;63639;52.280;5.162;2022-10-16T07:13:49;101288.85;;;18.44;58.49
73918;BME280;63639;52.280;5.162;2022-10-16T07:16:18;101290.74;;;18.44;58.66
73918;BME280;63639;52.280;5.162;2022-10-16T07:18:45;101295.36;;;18.45;58.63
73918;BME280;63639;52.280;5.162;2022-10-16T07:21:14;101298.78;;;18.45;58.58
73918;BME280;63639;52.280;5.162;2022-10-16T07:23:42;101306.22;;;18.45;58.59
73918;BME280;63639;52.280;5.162;2022-10-16T07:26:10;101309.48;;;18.46;58.67
73918;BME280;63639;52.280;5.162;2022-10-16T07:28:37;101311.73;;;18.46;58.69
73918;BME280;63639;52.280;5.162;2022-10-16T07:31:06;101322.27;;;18.46;58.62
73918;BME280;63639;52.280;5.162;2022-10-16T07:33:35;101322.18;;;18.46;58.54
73918;BME280;63639;52.280;5.162;2022-10-16T07:36:02;101330.03;;;18.47;58.50
73918;BME280;63639;52.280;5.162;2022-10-16T07:38:29;101342.92;;;18.49;58.48
73918;BME280;63639;52.280;5.162;2022-10-16T07:40:57;101348.57;;;18.45;59.53
73918;BME280;63639;52.280;5.162;2022-10-16T07:43:24;101347.17;;;18.38;59.82
73918;BME280;63639;52.280;5.162;2022-10-16T07:45:51;101354.94;;;18.38;59.61
73918;BME280;63639;52.280;5.162;2022-10-16T07:48:19;101362.21;;;18.40;59.42
73918;BME280;63639;52.280;5.162;2022-10-16T07:50:46;101363.35;;;18.41;59.33
73918;BME280;63639;52.280;5.162;2022-10-16T07:53:13;101369.27;;;18.43;59.25
73918;BME280;63639;52.280;5.162;2022-10-16T07:55:40;101370.98;;;18.45;59.18
73918;BME280;63639;52.280;5.162;2022-10-16T07:58:07;101377.98;;;18.46;59.08
73918;BME280;63639;52.280;5.162;2022-10-16T08:00:33;101375.75;;;18.46;59.03
73918;BME280;63639;52.280;5.162;2022-10-16T08:03:00;101380.00;;;18.47;59.00
73918;BME280;63639;52.280;5.162;2022-10-16T08:05:27;101380.61;;;18.47;59.05
73918;BME280;63639;52.280;5.162;2022-10-16T08:07:53;101381.99;;;18.47;59.02
73918;BME280;63639;52.280;5.162;2022-10-16T08:10:22;101393.41;;;18.47;58.99
73918;BME280;63639;52.280;5.162;2022-10-16T08:12:50;101392.96;;;18.48;58.99
73918;BME280;63639;52.280;5.162;2022-10-16T08:15:17;101400.36;;;18.49;58.92
73918;BME280;63639;52.280;5.162;2022-10-16T08:17:44;101401.93;;;18.49;59.05
73918;BME280;63639;52.280;5.162;2022-10-16T08:20:11;101411.01;;;18.51;58.98
73918;BME280;63639;52.280;5.162;2022-10-16T08:22:37;101404.82;;;18.51;58.93
73918;BME280;63639;52.280;5.162;2022-10-16T08:25:05;101406.50;;;18.52;58.76
73918;BME280;63639;52.280;5.162;2022-10-16T08:27:32;101415.25;;;18.51;58.85
73918;BME280;63639;52.280;5.162;2022-10-16T08:30:00;101416.20;;;18.51;59.21
73918;BME280;63639;52.280;5.162;2022-10-16T08:32:26;101413.39;;;18.51;58.90
73918;BME280;63639;52.280;5.162;2022-10-16T08:34:53;101407.67;;;18.51;59.27
73918;BME280;63639;52.280;5.162;2022-10-16T08:37:20;101413.17;;;18.52;59.08
73918;BME280;63639;52.280;5.162;2022-10-16T08:39:47;101419.16;;;18.53;59.13
73918;BME280;63639;52.280;5.162;2022-10-16T08:42:29;101426.05;;;18.54;59.01
73918;BME280;63639;52.280;5.162;2022-10-16T08:45:09;101424.88;;;18.55;59.22
73918;BME280;63639;52.280;5.162;2022-10-16T08:47:49;101432.90;;;18.57;59.54
73918;BME280;63639;52.280;5.162;2022-10-16T08:50:23;101434.48;;;18.59;59.31
73918;BME280;63639;52.280;5.162;2022-10-16T08:52:51;101437.79;;;18.60;59.30
73918;BME280;63639;52.280;5.162;2022-10-16T08:55:30;101451.13;;;18.61;59.77
73918;BME280;63639;52.280;5.162;2022-10-16T08:57:57;101459.28;;;18.63;59.62
73918;BME280;63639;52.280;5.162;2022-10-16T09:00:24;101462.05;;;18.67;59.50
73918;BME280;63639;52.280;5.162;2022-10-16T09:02:58;101465.26;;;18.70;59.47
73918;BME280;63639;52.280;5.162;2022-10-16T09:06:08;101470.10;;;18.74;59.39
73918;BME280;63639;52.280;5.162;2022-10-16T09:08:44;101480.69;;;18.77;59.49
73918;BME280;63639;52.280;5.162;2022-10-16T09:11:20;101483.70;;;18.80;59.47
73918;BME280;63639;52.280;5.162;2022-10-16T09:13:55;101478.51;;;18.83;59.34
73918;BME280;63639;52.280;5.162;2022-10-16T09:16:27;101484.13;;;18.87;59.48
73918;BME280;63639;52.280;5.162;2022-10-16T09:19:00;101489.03;;;18.90;59.59
73918;BME280;63639;52.280;5.162;2022-10-16T09:21:30;101500.65;;;18.95;59.40
73918;BME280;63639;52.280;5.162;2022-10-16T09:23:59;101502.27;;;18.98;59.59
73918;BME280;63639;52.280;5.162;2022-10-16T09:26:31;101503.15;;;19.02;59.62
73918;BME280;63639;52.280;5.162;2022-10-16T09:28:58;101504.36;;;19.08;59.40
73918;BME280;63639;52.280;5.162;2022-10-16T09:31:25;101505.31;;;19.13;59.26
73918;BME280;63639;52.280;5.162;2022-10-16T09:33:54;101507.68;;;19.19;59.19
73918;BME280;63639;52.280;5.162;2022-10-16T09:36:21;101510.43;;;19.24;59.07
73918;BME280;63639;52.280;5.162;2022-10-16T09:38:49;101512.48;;;19.30;59.13
73918;BME280;63639;52.280;5.162;2022-10-16T09:41:18;101515.31;;;19.36;59.04
73918;BME280;63639;52.280;5.162;2022-10-16T09:43:49;101521.51;;;19.42;58.74
73918;BME280;63639;52.280;5.162;2022-10-16T09:46:25;101527.46;;;19.46;58.58
73918;BME280;63639;52.280;5.162;2022-10-16T09:48:55;101525.50;;;19.51;58.64
73918;BME280;63639;52.280;5.162;2022-10-16T09:51:24;101526.30;;;19.55;58.56
73918;BME280;63639;52.280;5.162;2022-10-16T09:53:55;101524.96;;;19.60;58.24
73918;BME280;63639;52.280;5.162;2022-10-16T09:56:24;101521.78;;;19.65;58.23
73918;BME280;63639;52.280;5.162;2022-10-16T09:58:52;101526.93;;;19.70;58.25
73918;BME280;63639;52.280;5.162;2022-10-16T10:01:20;101525.77;;;19.78;58.13
73918;BME280;63639;52.280;5.162;2022-10-16T10:03:48;101519.71;;;19.86;57.88
73918;BME280;63639;52.280;5.162;2022-10-16T10:06:18;101531.09;;;19.94;57.76
73918;BME280;63639;52.280;5.162;2022-10-16T10:09:06;101533.05;;;20.00;57.42
73918;BME280;63639;52.280;5.162;2022-10-16T10:11:42;101534.15;;;20.07;57.10
73918;BME280;63639;52.280;5.162;2022-10-16T10:14:17;101533.28;;;20.16;57.07
73918;BME280;63639;52.280;5.162;2022-10-16T10:16:44;101543.57;;;20.25;56.93
73918;BME280;63639;52.280;5.162;2022-10-16T10:19:15;101545.59;;;20.39;56.53
73918;BME280;63639;52.280;5.162;2022-10-16T10:21:42;101548.01;;;20.50;55.95
73918;BME280;63639;52.280;5.162;2022-10-16T10:24:11;101545.49;;;20.65;55.57
73918;BME280;63639;52.280;5.162;2022-10-16T10:26:41;101549.52;;;20.69;55.70
73918;BME280;63639;52.280;5.162;2022-10-16T10:29:21;101557.87;;;20.77;55.72
73918;BME280;63639;52.280;5.162;2022-10-16T10:31:56;101568.02;;;20.91;55.52
73918;BME280;63639;52.280;5.162;2022-10-16T10:34:39;101574.55;;;21.09;55.05
73918;BME280;63639;52.280;5.162;2022-10-16T10:37:19;101575.30;;;21.22;54.25
73918;BME280;63639;52.280;5.162;2022-10-16T10:39:53;101575.34;;;21.40;54.06
73918;BME280;63639;52.280;5.162;2022-10-16T10:42:27;101574.08;;;21.73;52.58
73918;BME280;63639;52.280;5.162;2022-10-16T10:45:15;101567.69;;;21.90;52.18
73918;BME280;63639;52.280;5.162;2022-10-16T10:47:49;101570.70;;;22.08;51.56
73918;BME280;63639;52.280;5.162;2022-10-16T10:50:24;101577.80;;;22.17;51.62
73918;BME280;63639;52.280;5.162;2022-10-16T10:52:59;101584.07;;;22.18;51.61
73918;BME280;63639;52.280;5.162;2022-10-16T10:55:38;101576.36;;;22.12;52.13
73918;BME280;63639;52.280;5.162;2022-10-16T10:58:24;101582.70;;;22.01;51.61
73918;BME280;63639;52.280;5.162;2022-10-16T11:00:57;101589.24;;;21.85;52.20
73918;BME280;63639;52.280;5.162;2022-10-16T11:03:35;101599.70;;;21.68;52.61
73918;BME280;63639;52.280;5.162;2022-10-16T11:06:10;101596.46;;;21.55;52.74
73918;BME280;63639;52.280;5.162;2022-10-16T11:08:42;101592.91;;;21.46;53.04
73918;BME280;63639;52.280;5.162;2022-10-16T11:11:11;101599.45;;;21.41;53.27
73918;BME280;63639;52.280;5.162;2022-10-16T11:13:45;101595.61;;;21.76;51.69
73918;BME280;63639;52.280;5.162;2022-10-16T11:16:20;101598.17;;;21.72;52.23
73918;BME280;63639;52.280;5.162;2022-10-16T11:18:55;101599.67;;;21.69;53.36
73918;BME280;63639;52.280;5.162;2022-10-16T11:21:23;101601.36;;;21.62;53.04
73918;BME280;63639;52.280;5.162;2022-10-16T11:23:55;101605.97;;;21.57;53.36
73918;BME280;63639;52.280;5.162;2022-10-16T11:26:27;101605.02;;;21.53;53.92
73918;BME280;63639;52.280;5.162;2022-10-16T11:28:56;101605.85;;;21.51;54.56
73918;BME280;63639;52.280;5.162;2022-10-16T11:31:28;101614.23;;;21.49;54.56
73918;BME280;63639;52.280;5.162;2022-10-16T11:34:04;101616.35;;;21.49;55.38
73918;BME280;63639;52.280;5.162;2022-10-16T11:36:36;101618.19;;;21.49;55.45
73918;BME280;63639;52.280;5.162;2022-10-16T11:39:14;101625.35;;;21.48;55.56
73918;BME280;63639;52.280;5.162;2022-10-16T11:41:47;101622.15;;;21.47;55.91
73918;BME280;63639;52.280;5.162;2022-10-16T11:44:24;101621.92;;;21.47;55.36
73918;BME280;63639;52.280;5.162;2022-10-16T11:47:01;101619.23;;;21.48;55.87
73918;BME280;63639;52.280;5.162;2022-10-16T11:49:32;101621.30;;;21.49;56.01
73918;BME280;63639;52.280;5.162;2022-10-16T11:52:05;101619.44;;;21.48;53.45
73918;BME280;63639;52.280;5.162;2022-10-16T11:54:41;101619.27;;;21.51;54.01
73918;BME280;63639;52.280;5.162;2022-10-16T11:57:15;101625.00;;;21.53;54.87
73918;BME280;63639;52.280;5.162;2022-10-16T11:59:45;101633.56;;;21.54;54.80
73918;BME280;63639;52.280;5.162;2022-10-16T12:02:40;101630.46;;;21.55;53.62
73918;BME280;63639;52.280;5.162;2022-10-16T12:05:22;101632.25;;;21.56;53.81
73918;BME280;63639;52.280;5.162;2022-10-16T12:07:56;101636.62;;;21.56;54.44
73918;BME280;63639;52.280;5.162;2022-10-16T12:10:30;101641.20;;;21.58;52.90
73918;BME280;63639;52.280;5.162;2022-10-16T12:13:02;101636.02;;;21.60;52.46
73918;BME280;63639;52.280;5.162;2022-10-16T12:15:31;101644.74;;;21.63;53.92
73918;BME280;63639;52.280;5.162;2022-10-16T12:18:00;101649.75;;;21.65;53.98
73918;BME280;63639;52.280;5.162;2022-10-16T12:20:29;101653.99;;;21.66;53.12
73918;BME280;63639;52.280;5.162;2022-10-16T12:23:00;101654.88;;;21.69;54.02
73918;BME280;63639;52.280;5.162;2022-10-16T12:25:29;101654.09;;;21.70;53.19
73918;BME280;63639;52.280;5.162;2022-10-16T12:28:00;101651.90;;;21.72;52.64
73918;BME280;63639;52.280;5.162;2022-10-16T12:30:29;101657.56;;;21.75;53.34
73918;BME280;63639;52.280;5.162;2022-10-16T12:32:58;101661.52;;;21.77;52.99
73918;BME280;63639;52.280;5.162;2022-10-16T12:35:28;101661.68;;;21.78;51.55
73918;BME280;63639;52.280;5.162;2022-10-16T12:38:05;101666.02;;;21.80;51.55
73918;BME280;63639;52.280;5.162;2022-10-16T12:40:41;101657.01;;;21.82;50.73
73918;BME280;63639;52.280;5.162;2022-10-16T12:43:26;101659.88;;;21.84;51.61
73918;BME280;63639;52.280;5.162;2022-10-16T12:46:37;101667.47;;;21.85;51.67
73918;BME280;63639;52.280;5.162;2022-10-16T12:49:19;101662.32;;;21.88;51.99
73918;BME280;63639;52.280;5.162;2022-10-16T12:51:47;101660.90;;;21.88;50.96
73918;BME280;63639;52.280;5.162;2022-10-16T12:54:17;101664.48;;;21.90;52.20
73918;BME280;63639;52.280;5.162;2022-10-16T12:56:53;101670.42;;;21.91;51.65
73918;BME280;63639;52.280;5.162;2022-10-16T12:59:32;101668.71;;;21.92;52.11
73918;BME280;63639;52.280;5.162;2022-10-16T13:02:29;101661.24;;;21.94;52.33
73918;BME280;63639;52.280;5.162;2022-10-16T13:05:15;101667.72;;;21.96;52.37
73918;BME280;63639;52.280;5.162;2022-10-16T13:07:53;101670.51;;;21.98;51.52
73918;BME280;63639;52.280;5.162;2022-10-16T13:10:35;101672.98;;;22.00;50.99